Time;durP1;ratioP1;P1;durP2;ratioP2;P2;SDS_P1;SDS_P2;PMS_P1;PMS_P2;Temp;Humidity;BMP_temperature;BMP_pressure;BME280_temperature;BME280_humidity;BME280_pressure;Samples;Min_cycle;Max_cycle;Signal;HPM_P1;HPM_P2
2023/04/14 00:01:01;;;;;;;4.80;3.80;;;;;;;7.77;83.98;100968.59;6135607;28;20247;-71
2023/04/14 00:04:22;;;;;;;6.33;3.83;;;;;;;7.71;84.13;100974.41;6151779;28;20227;-71
2023/04/14 00:07:43;;;;;;;4.57;3.73;;;;;;;7.70;84.36;100973.59;6152373;28;20512;-71
2023/04/14 00:11:04;;;;;;;4.70;3.23;;;;;;;7.69;85.23;100976.34;6139140;28;20583;-71
2023/04/14 00:14:27;;;;;;;4.63;3.20;;;;;;;7.69;84.17;100971.94;6156101;28;20222;-71
2023/04/14 00:17:48;;;;;;;4.20;3.43;;;;;;;7.68;84.23;100970.28;6129517;28;20231;-70
2023/04/14 00:21:09;;;;;;;3.03;2.77;;;;;;;7.62;84.19;100970.88;6137906;28;20662;-71
2023/04/14 00:24:29;;;;;;;4.30;3.90;;;;;;;7.56;84.25;100974.09;6152381;28;20235;-70
2023/04/14 00:27:50;;;;;;;3.20;2.90;;;;;;;7.51;84.14;100984.19;6136793;28;20242;-71
2023/04/14 00:31:12;;;;;;;3.43;3.13;;;;;;;7.44;83.90;100988.38;6130933;28;20246;-71
2023/04/14 00:34:34;;;;;;;3.70;3.20;;;;;;;7.42;84.94;100991.16;6142274;28;20231;-72
2023/04/14 00:37:55;;;;;;;6.10;3.77;;;;;;;7.44;84.96;100983.13;6152912;28;20235;-71
2023/04/14 00:41:16;;;;;;;3.40;3.20;;;;;;;7.46;84.61;100996.94;6136652;28;20245;-71
2023/04/14 00:44:37;;;;;;;3.10;2.80;;;;;;;7.42;84.50;101001.66;6149075;28;20242;-71
2023/04/14 00:47:59;;;;;;;4.10;3.43;;;;;;;7.40;85.01;100997.53;6151077;28;20227;-71
2023/04/14 00:51:20;;;;;;;3.80;2.87;;;;;;;7.37;84.47;101001.25;6136755;28;20227;-71
2023/04/14 00:54:42;;;;;;;5.50;3.20;;;;;;;7.29;83.95;101000.31;6154722;28;20235;-71
2023/04/14 00:58:03;;;;;;;3.47;3.17;;;;;;;7.24;84.49;101000.72;6133364;28;20243;-71
2023/04/14 01:01:24;;;;;;;3.67;2.93;;;;;;;7.24;84.02;101007.78;6149306;28;20245;-71
2023/04/14 01:04:46;;;;;;;4.50;3.70;;;;;;;7.17;84.16;101003.13;6146637;28;20508;-71
2023/04/14 01:08:11;;;;;;;3.77;3.47;;;;;;;7.11;84.34;101008.94;6105832;28;20616;-71
2023/04/14 01:11:42;;;;;;;3.73;3.43;;;;;;;7.07;84.56;101019.84;6137034;28;20230;-71
2023/04/14 01:15:12;;;;;;;4.07;3.37;;;;;;;7.04;84.30;101013.09;6137433;28;20224;-70
2023/04/14 01:18:47;;;;;;;3.23;2.83;;;;;;;7.12;84.50;101009.75;6148898;28;20253;-70
2023/04/14 01:22:10;;;;;;;4.40;4.00;;;;;;;7.06;84.55;101012.94;6146663;28;20284;-70
2023/04/14 01:26:05;;;;;;;3.63;3.33;;;;;;;7.04;84.32;101012.25;6145398;28;20947;-71
2023/04/14 01:29:58;;;;;;;5.80;4.33;;;;;;;6.95;84.41;101013.13;6149740;28;20233;-71
2023/04/14 01:33:24;;;;;;;4.03;3.67;;;;;;;6.89;84.79;101014.50;6124597;28;20263;-71
2023/04/14 01:36:58;;;;;;;4.47;4.07;;;;;;;6.85;84.33;101021.81;6140195;28;20234;-71
2023/04/14 01:40:20;;;;;;;3.53;3.10;;;;;;;6.83;85.33;101012.44;6135809;28;20242;-71
2023/04/14 01:43:45;;;;;;;3.77;3.47;;;;;;;6.85;84.76;101021.81;6146713;28;20223;-72
2023/04/14 01:47:09;;;;;;;3.93;3.63;;;;;;;6.86;84.29;101017.41;6145375;28;20243;-70
2023/04/14 01:50:34;;;;;;;4.47;3.37;;;;;;;6.81;84.57;101019.63;6143534;28;20614;-71
2023/04/14 01:53:59;;;;;;;3.57;3.20;;;;;;;6.72;85.19;101009.97;6148458;28;20266;-71
2023/04/14 01:57:24;;;;;;;3.30;3.03;;;;;;;6.72;84.83;101012.59;6124311;28;20222;-69
2023/04/14 02:00:46;;;;;;;3.50;3.20;;;;;;;6.64;85.19;101012.47;6144310;28;20238;-71
2023/04/14 02:04:08;;;;;;;4.17;3.63;;;;;;;6.62;85.06;101015.22;6149695;28;20239;-71
2023/04/14 02:07:33;;;;;;;3.83;3.37;;;;;;;6.67;84.80;101022.66;6152891;28;20360;-71
2023/04/14 02:10:55;;;;;;;4.77;3.43;;;;;;;6.66;84.70;101023.63;6141851;28;20250;-70
2023/04/14 02:14:18;;;;;;;4.13;3.77;;;;;;;6.56;84.59;101015.75;6143596;28;20242;-70
2023/04/14 02:17:40;;;;;;;3.20;3.00;;;;;;;6.51;84.94;101010.94;6143739;28;20511;-70
2023/04/14 02:21:03;;;;;;;4.03;3.73;;;;;;;6.50;85.25;101013.72;6147845;28;20226;-71
2023/04/14 02:24:26;;;;;;;3.43;3.07;;;;;;;6.50;84.74;101011.91;6159807;28;20273;-71
2023/04/14 02:27:52;;;;;;;3.43;3.13;;;;;;;6.48;85.26;101015.63;6148703;28;20250;-70
2023/04/14 02:31:19;;;;;;;3.90;3.60;;;;;;;6.44;85.29;101022.13;6144958;28;20892;-70
2023/04/14 02:34:46;;;;;;;3.10;2.87;;;;;;;6.43;84.69;101028.31;6163480;28;20230;-71
2023/04/14 02:38:15;;;;;;;3.57;3.07;;;;;;;6.45;85.02;101031.63;6140238;28;20234;-71
2023/04/14 02:41:41;;;;;;;4.10;3.03;;;;;;;6.41;85.56;101035.50;6146272;28;20313;-72
2023/04/14 02:45:06;;;;;;;3.10;2.80;;;;;;;6.43;85.03;101044.06;6132193;28;20625;-70
2023/04/14 02:48:29;;;;;;;4.37;3.97;;;;;;;6.41;84.76;101048.59;6132020;28;20236;-71
2023/04/14 02:51:53;;;;;;;4.27;3.60;;;;;;;6.40;84.77;101042.53;6146629;28;20579;-71
2023/04/14 02:55:15;;;;;;;7.30;3.20;;;;;;;6.39;85.02;101047.91;6135582;28;20231;-71
2023/04/14 02:58:40;;;;;;;4.13;3.73;;;;;;;6.38;84.74;101043.63;6145985;28;20234;-70
2023/04/14 03:02:03;;;;;;;4.00;3.60;;;;;;;6.34;84.77;101048.31;6152578;28;20229;-71
2023/04/14 03:05:27;;;;;;;3.50;3.20;;;;;;;6.29;84.66;101047.09;6139775;28;20227;-70
2023/04/14 03:08:59;;;;;;;3.53;3.23;;;;;;;6.24;85.17;101049.28;6161885;28;20238;-70
2023/04/14 03:12:24;;;;;;;4.13;2.83;;;;;;;6.30;86.18;101054.00;6143782;28;20238;-71
2023/04/14 03:15:47;;;;;;;3.43;3.13;;;;;;;6.32;85.43;101058.13;6136559;28;20620;-70
2023/04/14 03:19:11;;;;;;;3.90;3.50;;;;;;;6.30;85.33;101059.22;6136914;28;20235;-71
2023/04/14 03:22:39;;;;;;;4.00;3.70;;;;;;;6.25;85.31;101048.31;6155372;28;20242;-70
2023/04/14 03:26:04;;;;;;;3.73;3.33;;;;;;;6.15;85.25;101054.34;6138324;28;20243;-70
2023/04/14 03:29:29;;;;;;;3.03;2.83;;;;;;;6.14;86.17;101062.34;6150536;28;20655;-70
2023/04/14 03:32:53;;;;;;;3.53;3.20;;;;;;;6.13;85.64;101064.16;6121621;28;20314;-70
2023/04/14 03:36:16;;;;;;;3.23;3.03;;;;;;;6.12;85.96;101064.28;6143880;28;20233;-70
2023/04/14 03:39:39;;;;;;;3.60;3.27;;;;;;;6.10;86.67;101059.16;6150459;28;20703;-70
2023/04/14 03:43:02;;;;;;;4.40;3.93;;;;;;;6.10;86.18;101058.38;6134138;28;20616;-71
2023/04/14 03:46:25;;;;;;;4.10;3.70;;;;;;;6.09;85.89;101059.31;6139876;28;20609;-70
2023/04/14 03:49:50;;;;;;;3.50;3.20;;;;;;;6.02;85.85;101060.81;6134684;28;20306;-70
2023/04/14 03:53:13;;;;;;;3.57;3.30;;;;;;;6.01;86.24;101062.59;6144949;28;20230;-71
2023/04/14 03:56:37;;;;;;;3.77;3.43;;;;;;;5.97;85.76;101057.75;6162164;28;22260;-71
2023/04/14 04:00:00;;;;;;;4.63;3.07;;;;;;;5.98;85.90;101068.09;6142372;28;20234;-70
2023/04/14 04:03:22;;;;;;;4.67;3.27;;;;;;;5.95;85.83;101057.06;6148459;28;20226;-70
2023/04/14 04:06:44;;;;;;;3.67;3.27;;;;;;;5.97;85.10;101060.38;6140667;28;20229;-71
2023/04/14 04:10:07;;;;;;;4.60;3.27;;;;;;;5.92;86.01;101063.41;6138235;28;20226;-71
2023/04/14 04:13:29;;;;;;;15.37;12.13;;;;;;;5.93;85.94;101074.69;6147279;28;20231;-71
2023/04/14 04:16:53;;;;;;;6.50;5.90;;;;;;;5.94;86.92;101086.84;6134056;28;20230;-71
2023/04/14 04:20:15;;;;;;;11.37;10.07;;;;;;;5.95;86.34;101075.41;6144121;28;20238;-71
2023/04/14 04:23:43;;;;;;;8.10;7.27;;;;;;;6.04;85.73;101088.53;6155137;28;20833;-71
2023/04/14 04:27:05;;;;;;;6.27;5.17;;;;;;;6.02;86.29;101087.03;6135254;28;20234;-71
2023/04/14 04:30:28;;;;;;;4.43;3.47;;;;;;;6.03;85.70;101094.75;6136579;28;20239;-70
2023/04/14 04:33:50;;;;;;;4.00;3.70;;;;;;;6.00;85.42;101094.19;6148645;28;20231;-70
2023/04/14 04:37:12;;;;;;;4.30;3.70;;;;;;;5.98;85.02;101096.94;6163846;28;20239;-71
2023/04/14 04:40:37;;;;;;;4.43;3.47;;;;;;;5.96;84.93;101088.38;6138270;28;20266;-71
2023/04/14 04:44:00;;;;;;;5.50;3.67;;;;;;;5.93;85.40;101088.63;6144364;28;20242;-71
2023/04/14 04:47:22;;;;;;;4.00;3.60;;;;;;;5.93;85.71;101083.38;6158269;28;20532;-71
2023/04/14 04:50:42;;;;;;;4.40;3.93;;;;;;;5.92;85.41;101086.97;6142908;28;22420;-70
2023/04/14 04:54:04;;;;;;;4.50;4.10;;;;;;;5.93;85.38;101088.63;6141693;28;20235;-70
2023/04/14 04:57:27;;;;;;;3.13;2.83;;;;;;;5.92;85.57;101084.34;6147736;28;20237;-71
2023/04/14 05:00:48;;;;;;;5.17;4.60;;;;;;;5.91;85.70;101087.94;6129859;28;20229;-70
2023/04/14 05:04:09;;;;;;;4.97;2.97;;;;;;;5.98;85.49;101088.25;6156917;28;20267;-71
2023/04/14 05:07:30;;;;;;;4.60;3.10;;;;;;;6.00;85.80;101081.06;6154478;28;20224;-71
2023/04/14 05:10:50;;;;;;;4.77;4.43;;;;;;;6.11;86.10;101078.34;6137977;28;20242;-70
2023/04/14 05:14:13;;;;;;;3.50;3.20;;;;;;;6.30;85.39;101082.81;6147193;28;21358;-71
2023/04/14 05:17:34;;;;;;;3.93;3.20;;;;;;;6.37;84.78;101084.75;6149754;28;20230;-71
2023/04/14 05:21:05;;;;;;;3.40;3.10;;;;;;;6.43;84.13;101075.53;6138644;28;20225;-70
2023/04/14 05:24:26;;;;;;;2.30;2.10;;;;;;;6.54;83.23;101078.03;6149176;28;21149;-70
2023/04/14 05:27:46;;;;;;;3.13;2.93;;;;;;;6.66;83.37;101089.22;6143494;28;20238;-70
2023/04/14 05:31:11;;;;;;;3.10;2.80;;;;;;;6.81;82.98;101080.78;6145855;28;20590;-70
2023/04/14 05:34:32;;;;;;;3.80;3.10;;;;;;;6.93;81.94;101088.53;6154334;28;20239;-70
2023/04/14 05:37:53;;;;;;;2.80;2.60;;;;;;;6.86;81.80;101083.00;6151601;28;20234;-71
2023/04/14 05:41:15;;;;;;;4.03;2.80;;;;;;;6.85;81.72;101089.22;6146501;28;20237;-72
2023/04/14 05:44:36;;;;;;;3.43;3.00;;;;;;;6.86;82.35;101090.88;6155760;28;20237;-71
2023/04/14 05:47:58;;;;;;;3.10;2.80;;;;;;;7.00;82.06;101089.63;6154255;28;20234;-70
2023/04/14 05:51:20;;;;;;;3.40;3.13;;;;;;;7.07;82.24;101091.53;6139741;28;20229;-71
2023/04/14 05:54:40;;;;;;;4.33;3.33;;;;;;;7.11;82.18;101092.09;6161259;28;20235;-71
2023/04/14 05:58:04;;;;;;;4.17;3.77;;;;;;;7.18;82.19;101093.22;6139406;28;20231;-70
2023/04/14 06:01:25;;;;;;;4.40;3.43;;;;;;;7.23;81.64;101092.78;6140413;28;20222;-70
2023/04/14 06:04:47;;;;;;;5.20;3.53;;;;;;;7.24;81.34;101091.78;6133915;28;20641;-71
2023/04/14 06:08:08;;;;;;;4.63;2.93;;;;;;;7.27;81.81;101089.72;6135410;28;20238;-71
2023/04/14 06:11:29;;;;;;;5.43;3.37;;;;;;;7.33;81.48;101102.28;6143890;28;20619;-71
2023/04/14 06:14:50;;;;;;;5.03;3.60;;;;;;;7.39;82.00;101099.09;6145749;28;20258;-70
2023/04/14 06:18:11;;;;;;;4.10;3.13;;;;;;;7.60;81.97;101100.72;6144626;28;20234;-70
2023/04/14 06:21:33;;;;;;;3.30;2.80;;;;;;;7.73;81.38;101103.84;6153919;28;20313;-71
2023/04/14 06:24:54;;;;;;;3.83;3.10;;;;;;;7.77;80.53;101103.41;6140822;28;20571;-70
2023/04/14 06:28:15;;;;;;;9.13;3.50;;;;;;;7.84;80.66;101099.25;6149322;28;20578;-71
2023/04/14 06:31:36;;;;;;;5.27;3.43;;;;;;;7.96;79.51;101104.31;6147418;28;20231;-71
2023/04/14 06:34:57;;;;;;;4.53;2.87;;;;;;;8.04;78.74;101100.00;6149102;28;20238;-70
2023/04/14 06:38:19;;;;;;;4.10;2.40;;;;;;;8.08;78.84;101100.53;6138083;28;20231;-70
2023/04/14 06:41:40;;;;;;;6.03;4.07;;;;;;;8.16;78.68;101093.53;6144484;28;20316;-71
2023/04/14 06:45:02;;;;;;;3.43;3.13;;;;;;;8.27;77.89;101084.66;6129262;28;20231;-71
2023/04/14 06:48:23;;;;;;;5.77;3.17;;;;;;;8.36;77.58;101099.56;6131609;28;20629;-70
2023/04/14 06:51:44;;;;;;;3.93;3.43;;;;;;;8.42;77.28;101090.25;6139630;28;20230;-70
2023/04/14 06:55:07;;;;;;;6.40;2.97;;;;;;;8.56;77.64;101087.94;6142235;28;20243;-71
2023/04/14 06:58:28;;;;;;;4.70;2.50;;;;;;;8.66;76.97;101092.31;6137451;28;20230;-70
2023/04/14 07:01:49;;;;;;;5.17;2.90;;;;;;;8.74;76.60;101092.38;6129518;28;20643;-71
2023/04/14 07:05:10;;;;;;;3.50;3.20;;;;;;;8.86;76.57;101091.16;6128029;28;20223;-70
2023/04/14 07:08:33;;;;;;;3.40;3.07;;;;;;;9.00;76.04;101088.03;6136288;28;20223;-69
2023/04/14 07:11:56;;;;;;;6.73;2.77;;;;;;;9.11;77.40;101089.56;6130469;28;20226;-70
2023/04/14 07:15:17;;;;;;;5.43;2.97;;;;;;;9.54;77.82;101096.63;6118668;28;20226;-71
2023/04/14 07:18:38;;;;;;;6.23;3.73;;;;;;;9.78;75.74;101091.47;6153947;28;20601;-71
2023/04/14 07:21:59;;;;;;;4.67;2.83;;;;;;;9.74;72.73;101095.41;6153720;28;20234;-71
2023/04/14 07:25:20;;;;;;;3.93;2.77;;;;;;;9.79;72.57;101092.31;6132808;28;20250;-70
2023/04/14 07:28:43;;;;;;;3.93;2.43;;;;;;;9.90;72.06;101094.69;6145678;28;20230;-69
2023/04/14 07:32:04;;;;;;;5.23;3.20;;;;;;;9.93;71.75;101094.38;6136144;28;20241;-71
2023/04/14 07:35:25;;;;;;;4.50;2.87;;;;;;;9.92;71.48;101090.91;6128921;28;20242;-69
2023/04/14 07:38:49;;;;;;;2.20;1.70;;;;;;;9.85;71.42;101091.69;6166347;28;20239;-69
2023/04/14 07:42:10;;;;;;;3.83;2.00;;;;;;;10.01;71.64;101090.94;6159778;28;20317;-69
2023/04/14 07:45:32;;;;;;;2.73;1.90;;;;;;;10.20;71.28;101101.25;6143073;28;20234;-69
2023/04/14 07:48:53;;;;;;;3.50;2.80;;;;;;;10.37;70.21;101095.06;6163158;28;20601;-68
2023/04/14 07:52:15;;;;;;;3.67;3.03;;;;;;;10.46;70.14;101099.34;6145648;28;20230;-69
2023/04/14 07:55:36;;;;;;;2.90;2.27;;;;;;;10.54;69.43;101096.75;6139888;28;20242;-68
2023/04/14 07:58:57;;;;;;;9.33;2.63;;;;;;;10.56;69.53;101100.03;6159107;28;20235;-69
2023/04/14 08:02:19;;;;;;;2.30;1.60;;;;;;;10.55;67.99;101098.41;6150936;28;20230;-70
2023/04/14 08:05:41;;;;;;;3.53;1.53;;;;;;;10.74;66.77;101101.72;6141627;28;20229;-71
2023/04/14 08:09:02;;;;;;;2.70;1.60;;;;;;;10.85;66.51;101104.03;6154476;28;20238;-70
2023/04/14 08:12:24;;;;;;;5.63;1.93;;;;;;;11.00;66.12;101097.13;6139459;28;20230;-70
2023/04/14 08:15:44;;;;;;;6.73;4.03;;;;;;;11.24;65.06;101102.41;6144980;28;20235;-71
2023/04/14 08:19:06;;;;;;;5.87;3.00;;;;;;;11.51;64.92;101095.94;6156060;28;20309;-71
2023/04/14 08:22:27;;;;;;;3.97;2.73;;;;;;;11.62;64.20;101100.84;6148892;28;20234;-71
2023/04/14 08:25:48;;;;;;;2.60;1.60;;;;;;;11.71;62.76;101098.19;6161146;28;20599;-71
2023/04/14 08:29:09;;;;;;;2.63;1.77;;;;;;;11.85;62.49;101103.63;6173285;28;20316;-71
2023/04/14 08:32:30;;;;;;;4.67;1.97;;;;;;;11.96;60.52;101102.44;6165982;28;20637;-71
2023/04/14 08:35:52;;;;;;;3.73;1.40;;;;;;;12.26;60.40;101103.44;6159654;28;20245;-70
2023/04/14 08:39:13;;;;;;;2.10;1.93;;;;;;;12.32;59.02;101105.41;6165252;28;20601;-71
2023/04/14 08:42:34;;;;;;;1.30;1.20;;;;;;;12.23;57.55;101101.16;6140398;28;20319;-71
2023/04/14 08:45:56;;;;;;;3.13;2.53;;;;;;;12.16;56.50;101103.69;6148433;28;20234;-69
2023/04/14 08:49:33;;;;;;;5.30;2.37;;;;;;;12.23;56.80;101104.63;6161505;28;20247;-71
2023/04/14 08:53:00;;;;;;;1.00;0.83;;;;;;;12.12;55.80;101099.72;6154766;28;20551;-70
2023/04/14 08:56:21;;;;;;;3.93;1.20;;;;;;;12.07;54.99;101103.88;6137148;28;20290;-70
2023/04/14 08:59:42;;;;;;;1.73;1.63;;;;;;;12.35;55.90;101104.25;6156026;28;20230;-71
2023/04/14 09:03:04;;;;;;;2.60;0.87;;;;;;;12.38;55.80;101101.25;6142668;28;20235;-71
2023/04/14 09:06:26;;;;;;;2.47;1.57;;;;;;;12.35;54.28;101093.66;6150931;28;20238;-71
2023/04/14 09:09:49;;;;;;;2.07;1.37;;;;;;;12.55;54.42;101090.41;6151415;28;20744;-71
2023/04/14 09:13:14;;;;;;;3.00;1.90;;;;;;;12.92;54.47;101089.63;6131074;28;20231;-71
2023/04/14 09:16:36;;;;;;;2.80;0.87;;;;;;;12.99;52.33;101079.16;6158340;28;20234;-71
2023/04/14 09:19:56;;;;;;;1.60;1.50;;;;;;;12.90;51.85;101085.50;6165507;28;20699;-71
2023/04/14 09:23:18;;;;;;;4.80;1.10;;;;;;;13.03;52.12;101080.44;6150528;28;20223;-71
2023/04/14 09:26:39;;;;;;;2.50;1.23;;;;;;;13.13;52.61;101088.94;6143801;28;20245;-73
2023/04/14 09:30:01;;;;;;;3.77;1.53;;;;;;;12.92;51.91;101091.44;6157896;28;20235;-70
2023/04/14 09:33:23;;;;;;;2.77;2.00;;;;;;;13.27;51.60;101093.50;6153506;28;20604;-71
2023/04/14 09:37:00;;;;;;;2.90;1.00;;;;;;;13.30;51.69;101092.34;6158567;28;20333;-71
2023/04/14 09:40:28;;;;;;;3.60;2.20;;;;;;;13.46;51.33;101096.66;6148942;28;20274;-71
2023/04/14 09:43:51;;;;;;;1.60;1.20;;;;;;;13.87;51.44;101100.50;6160711;28;20313;-71
2023/04/14 09:47:15;;;;;;;5.77;1.40;;;;;;;14.04;49.70;101109.91;6168021;28;20647;-70
2023/04/14 09:50:56;;;;;;;1.43;1.20;;;;;;;13.94;50.12;101112.03;6151198;28;21002;-71
2023/04/14 09:54:23;;;;;;;1.50;1.40;;;;;;;14.15;50.08;101110.47;6169120;28;20267;-71
2023/04/14 09:57:46;;;;;;;2.97;1.00;;;;;;;13.99;49.30;101107.00;6165989;28;20370;-71
2023/04/14 10:01:13;;;;;;;0.80;0.80;;;;;;;13.92;49.33;101103.44;6140848;28;20230;-71
2023/04/14 10:04:35;;;;;;;2.90;1.67;;;;;;;14.39;49.11;101099.53;6146984;28;20238;-72
2023/04/14 10:08:02;;;;;;;5.07;1.03;;;;;;;14.79;48.71;101102.63;6137930;28;20518;-71
2023/04/14 10:11:24;;;;;;;3.70;2.40;;;;;;;15.00;48.14;101097.31;6149016;28;20253;-71
2023/04/14 10:14:45;;;;;;;1.80;0.80;;;;;;;14.88;46.13;101094.34;6154390;28;20239;-72
2023/04/14 10:18:07;;;;;;;0.90;0.90;;;;;;;14.62;45.80;101097.56;6132219;28;20246;-71
2023/04/14 10:21:28;;;;;;;1.03;1.03;;;;;;;14.68;46.01;101091.47;6158374;28;20992;-70
2023/04/14 10:24:49;;;;;;;2.13;1.10;;;;;;;14.74;45.73;101083.75;6146181;28;20509;-70
2023/04/14 10:28:10;;;;;;;5.67;3.10;;;;;;;14.99;46.14;101087.69;6142539;28;20235;-69
2023/04/14 10:31:34;;;;;;;1.30;0.70;;;;;;;14.81;45.10;101076.69;6144152;28;20230;-69
2023/04/14 10:35:00;;;;;;;4.13;1.70;;;;;;;14.88;45.18;101073.09;6138789;28;20619;-70
2023/04/14 10:38:21;;;;;;;2.83;0.90;;;;;;;15.36;44.66;101076.72;6136367;28;20715;-68
2023/04/14 10:41:46;;;;;;;4.63;2.17;;;;;;;15.26;45.38;101075.44;6158453;28;20229;-71
2023/04/14 10:45:09;;;;;;;1.13;1.10;;;;;;;15.82;44.70;101070.06;6155800;28;20246;-69
2023/04/14 10:48:33;;;;;;;2.50;1.73;;;;;;;15.39;43.62;101064.88;6162459;28;20258;-69
2023/04/14 10:51:57;;;;;;;2.40;0.83;;;;;;;15.58;44.37;101066.06;6138516;28;20230;-69
2023/04/14 10:55:21;;;;;;;5.57;1.23;;;;;;;15.95;43.13;101062.97;6137959;28;20231;-70
2023/04/14 10:58:54;;;;;;;4.07;3.37;;;;;;;16.18;42.62;101060.00;6167658;28;20234;-70
2023/04/14 11:02:30;;;;;;;2.60;1.50;;;;;;;16.46;41.74;101056.38;6139251;28;20233;-68
2023/04/14 11:05:52;;;;;;;2.40;1.33;;;;;;;16.50;40.99;101055.75;6147352;28;20380;-69
2023/04/14 11:09:31;;;;;;;1.93;0.97;;;;;;;15.85;41.53;101059.84;6155796;28;20238;-68
2023/04/14 11:12:56;;;;;;;1.37;1.20;;;;;;;15.93;41.58;101058.88;6138406;28;20238;-69
2023/04/14 11:16:26;;;;;;;1.40;0.90;;;;;;;16.17;41.66;101060.19;6149747;28;20225;-70
2023/04/14 11:19:48;;;;;;;0.80;0.80;;;;;;;16.22;41.96;101055.09;6145899;28;20237;-69
2023/04/14 11:23:11;;;;;;;0.87;0.87;;;;;;;16.25;41.86;101058.19;6118404;28;20290;-75
2023/04/14 11:26:33;;;;;;;4.43;2.10;;;;;;;16.29;41.84;101061.25;6136388;28;20234;-75
2023/04/14 11:29:54;;;;;;;3.93;1.10;;;;;;;16.09;42.70;101058.50;6151446;28;20596;-75
2023/04/14 11:33:15;;;;;;;1.50;0.80;;;;;;;15.77;43.82;101062.69;6138744;28;20777;-74
2023/04/14 11:36:38;;;;;;;2.53;0.90;;;;;;;15.73;44.31;101072.09;6142649;28;20312;-75
2023/04/14 11:39:59;;;;;;;2.00;1.00;;;;;;;15.53;44.22;101071.13;6152771;28;20223;-75
2023/04/14 11:43:21;;;;;;;1.93;1.30;;;;;;;15.21;44.99;101054.72;6148473;28;20234;-74
2023/04/14 11:46:42;;;;;;;2.13;1.60;;;;;;;15.17;45.87;101056.13;6152572;28;20257;-74
2023/04/14 11:50:05;;;;;;;1.30;1.07;;;;;;;15.23;45.96;101052.69;6148388;28;20227;-75
2023/04/14 11:53:26;;;;;;;1.20;1.17;;;;;;;15.03;46.64;101049.88;6153754;28;20234;-73
2023/04/14 11:56:48;;;;;;;2.37;1.63;;;;;;;14.81;47.53;101055.41;6152295;28;20234;-74
2023/04/14 12:00:11;;;;;;;3.60;2.70;;;;;;;14.85;49.03;101048.72;6145325;28;20231;-76
2023/04/14 12:03:34;;;;;;;1.13;1.03;;;;;;;14.80;48.89;101051.94;6151310;28;20231;-75
2023/04/14 12:06:55;;;;;;;1.47;1.30;;;;;;;15.27;47.55;101038.00;6123189;28;20254;-77
2023/04/14 12:10:16;;;;;;;4.00;1.87;;;;;;;15.67;46.54;101044.41;6117634;28;20246;-75
2023/04/14 12:13:39;;;;;;;2.30;1.80;;;;;;;15.80;46.16;101040.19;6155580;28;20294;-73
2023/04/14 12:17:02;;;;;;;1.77;1.17;;;;;;;15.25;47.47;101044.53;6140955;28;20223;-74
2023/04/14 12:20:23;;;;;;;3.07;2.07;;;;;;;15.27;48.01;101045.16;6132286;28;20235;-75
2023/04/14 12:23:47;;;;;;;4.37;1.80;;;;;;;15.19;48.33;101040.78;6159305;28;20267;-75
2023/04/14 12:27:09;;;;;;;2.50;2.07;;;;;;;15.13;48.41;101043.44;6164197;28;20546;-74
2023/04/14 12:30:30;;;;;;;2.10;1.77;;;;;;;15.28;47.40;101046.81;6149288;28;20574;-75
2023/04/14 12:33:52;;;;;;;3.03;1.77;;;;;;;14.77;48.74;101048.84;6160712;28;20822;-74
2023/04/14 12:37:13;;;;;;;2.23;2.03;;;;;;;14.67;49.36;101041.22;6138393;28;20231;-74
2023/04/14 12:40:38;;;;;;;1.20;1.10;;;;;;;14.36;49.94;101041.47;6150159;28;20623;-72
2023/04/14 12:43:59;;;;;;;3.83;1.70;;;;;;;14.20;50.49;101047.03;6173785;28;20234;-74
2023/04/14 12:47:27;;;;;;;3.00;1.50;;;;;;;14.84;49.21;101049.72;6165814;28;20231;-75
2023/04/14 12:50:50;;;;;;;1.63;1.53;;;;;;;15.68;47.21;101042.56;6141051;28;20321;-75
2023/04/14 12:54:11;;;;;;;3.00;1.63;;;;;;;16.59;44.49;101037.75;6143950;28;20227;-75
2023/04/14 12:57:33;;;;;;;1.47;1.37;;;;;;;16.27;44.60;101041.97;6158726;28;20243;-73
2023/04/14 13:00:53;;;;;;;3.47;3.17;;;;;;;15.50;46.28;101034.25;6136480;28;20242;-74
2023/04/14 13:04:14;;;;;;;4.83;2.67;;;;;;;15.56;46.71;101025.53;6157476;28;20313;-75
2023/04/14 13:07:37;;;;;;;3.10;2.13;;;;;;;15.60;46.45;101027.56;6138867;28;20295;-75
2023/04/14 13:10:58;;;;;;;2.37;1.47;;;;;;;15.67;46.65;101024.97;6152348;28;20225;-74
2023/04/14 13:14:18;;;;;;;4.37;3.37;;;;;;;15.93;46.61;101027.75;6163922;28;20305;-74
2023/04/14 13:17:39;;;;;;;3.57;1.40;;;;;;;15.56;46.86;101012.22;6157631;28;20436;-74
2023/04/14 13:21:01;;;;;;;2.73;1.70;;;;;;;15.38;47.97;101015.34;6131801;28;20610;-74
2023/04/14 13:24:23;;;;;;;4.70;3.60;;;;;;;15.83;46.86;101008.63;6145079;28;20235;-74
2023/04/14 13:27:44;;;;;;;5.67;4.13;;;;;;;16.31;44.72;100996.09;6155111;28;20246;-74
2023/04/14 13:31:05;;;;;;;3.97;2.47;;;;;;;16.17;45.65;100986.44;6143548;28;20230;-74
2023/04/14 13:34:27;;;;;;;3.63;3.23;;;;;;;17.23;44.45;100973.94;6155126;28;20235;-74
2023/04/14 13:37:48;;;;;;;3.85;3.40;;;;;;;19.35;38.34;100966.22;6145688;28;20239;-75
2023/04/14 13:41:10;;;;;;;8.75;6.38;;;;;;;19.59;37.28;100959.19;6132872;28;20511;-74
2023/04/14 13:44:31;;;;;;;14.55;3.65;;;;;;;17.60;41.26;100974.28;6141697;28;20226;-75
2023/04/14 13:47:52;;;;;;;2.15;1.92;;;;;;;18.79;39.75;100969.03;6109230;28;20321;-74
2023/04/14 13:51:13;;;;;;;5.03;4.00;;;;;;;21.79;34.10;100966.88;6139418;28;20324;-75
2023/04/14 13:54:35;;;;;;;2.85;2.55;;;;;;;23.00;29.37;100959.28;6160943;28;20238;-75
2023/04/14 13:57:57;;;;;;;6.35;1.95;;;;;;;20.96;32.79;100964.56;6138271;28;20222;-74
2023/04/14 14:01:18;;;;;;;3.28;3.00;;;;;;;22.11;31.65;100961.88;6148050;28;20239;-75
2023/04/14 14:04:39;;;;;;;6.35;5.03;;;;;;;21.36;32.65;100960.09;6161595;28;20262;-74
2023/04/14 14:08:00;;;;;;;7.20;6.47;;;;;;;19.06;37.09;100949.03;6159170;28;20230;-75
2023/04/14 14:11:21;;;;;;;4.75;4.28;;;;;;;17.57;40.40;100958.69;6157558;28;20229;-75
2023/04/14 14:14:43;;;;;;;4.13;3.05;;;;;;;16.38;43.67;100958.81;6162597;28;20783;-74
2023/04/14 14:18:05;;;;;;;5.03;1.77;;;;;;;15.83;45.18;100955.41;6154616;28;20230;-74
2023/04/14 14:21:26;;;;;;;1.60;1.50;;;;;;;15.54;46.08;100959.19;6157554;28;20237;-73
2023/04/14 14:24:47;;;;;;;4.93;2.23;;;;;;;15.14;46.41;100959.97;6142250;28;20263;-76
2023/04/14 14:28:08;;;;;;;3.27;2.47;;;;;;;14.86;47.33;100962.66;6137550;28;20231;-75
2023/04/14 14:31:30;;;;;;;5.80;5.23;;;;;;;15.07;47.20;100959.94;6134028;28;20257;-75
2023/04/14 14:34:51;;;;;;;5.73;5.00;;;;;;;15.11;46.90;100958.53;6151622;28;20227;-75
2023/04/14 14:38:12;;;;;;;5.43;4.77;;;;;;;15.14;47.09;100955.47;6132421;28;20298;-75
2023/04/14 14:41:33;;;;;;;9.40;4.17;;;;;;;15.55;45.30;100952.84;6132673;28;20224;-73
2023/04/14 14:44:54;;;;;;;3.27;2.97;;;;;;;15.66;45.11;100941.63;6153227;28;20230;-75
2023/04/14 14:48:16;;;;;;;7.60;4.67;;;;;;;15.56;45.43;100946.53;6162229;28;20234;-75
2023/04/14 14:51:37;;;;;;;4.40;4.00;;;;;;;15.59;45.24;100948.75;6152185;28;20249;-75
2023/04/14 14:54:58;;;;;;;6.03;3.10;;;;;;;15.79;44.86;100940.88;6137604;28;20232;-75
2023/04/14 14:58:20;;;;;;;2.43;1.90;;;;;;;16.05;44.48;100940.94;6138517;28;20636;-74
2023/04/14 15:01:41;;;;;;;1.20;1.10;;;;;;;16.53;43.27;100940.78;6151523;28;20230;-74
2023/04/14 15:05:03;;;;;;;3.20;1.73;;;;;;;16.82;42.01;100944.06;6143783;28;20231;-75
2023/04/14 15:08:24;;;;;;;1.07;0.97;;;;;;;17.08;41.85;100944.03;6151822;28;20231;-77
2023/04/14 15:11:46;;;;;;;3.20;2.30;;;;;;;16.41;42.03;100937.09;6147546;28;20230;-75
2023/04/14 15:15:08;;;;;;;7.07;3.43;;;;;;;15.94;43.10;100940.72;6152203;28;20230;-74
2023/04/14 15:18:29;;;;;;;2.60;2.40;;;;;;;15.55;43.34;100941.38;6139516;28;20238;-74
2023/04/14 15:21:52;;;;;;;3.90;3.50;;;;;;;15.26;44.50;100940.63;6154949;28;20245;-74
2023/04/14 15:25:12;;;;;;;3.87;2.17;;;;;;;15.21;46.04;100950.19;6133295;28;20262;-74
2023/04/14 15:28:33;;;;;;;3.80;3.47;;;;;;;14.85;47.62;100942.41;6145877;28;20234;-74
2023/04/14 15:31:54;;;;;;;5.03;3.07;;;;;;;14.67;48.76;100945.56;6139517;28;20262;-75
2023/04/14 15:35:15;;;;;;;5.23;2.30;;;;;;;14.50;49.24;100952.13;6149286;28;20235;-74
2023/04/14 15:38:38;;;;;;;2.50;2.30;;;;;;;14.32;49.60;100945.41;6154738;28;20842;-75
2023/04/14 15:42:00;;;;;;;2.83;2.50;;;;;;;14.30;50.28;100936.81;6141640;28;20662;-74
2023/04/14 15:45:21;;;;;;;2.87;2.67;;;;;;;14.17;49.97;100941.19;6125904;28;20469;-75
2023/04/14 15:48:42;;;;;;;5.00;3.80;;;;;;;14.16;49.24;100948.34;6163662;28;20231;-74